Grove City Test (29D)
Grove CIty, PA
Field Elevation: 1371
Lat: 41°08.76N  Long: 80°10.06W
CTAF/Unicom Freq: 122.8000
   
     For Weather-by-Phone, call 724 748-3504
Weather Advisories
3/2/2015 04:56 Z
Altimeter 30.15" Hg
Wind 310° @ 8 KT
Gusts --
Visibility 10 SM
Temperature -2° C (28° F)
Dewpoint -3° C (27° F)
Relative Humidity 92%
Density Altitude --
Condensation Altitude 1,900 feet
Wind Chill -7° C (19° F)
  Wind and Runways
Indicated Runway = 28
History
 
 
More Info
All DigiWx sites map
NOAA Forecast
 
Airport IQ 5010
(LHV) Lock Haven
(74PN) Altoona Regional
 
about DigiWx
 
FAA Disclaimer: The data displayed is for advisory purposes only and is not to be used for flight planning or operations. For official data, please call 724 748-3504 to hear the current automated AWOS voice message.
  METAR 29D 020456Z AUTO 31008KT 10SM M02/M03 A3015